sensor_id;sensor_type;location;lat;lon;timestamp;temperature;humidity
13440;DHT22;6792;57.698;11.946;2022-09-24T00:01:37;20.70;51.30
13440;DHT22;6792;57.698;11.946;2022-09-24T00:04:10;20.70;51.40
13440;DHT22;6792;57.698;11.946;2022-09-24T00:06:40;20.70;51.40
13440;DHT22;6792;57.698;11.946;2022-09-24T00:09:11;20.70;51.40
13440;DHT22;6792;57.698;11.946;2022-09-24T00:11:41;20.70;51.50
13440;DHT22;6792;57.698;11.946;2022-09-24T00:14:12;20.70;51.40
13440;DHT22;6792;57.698;11.946;2022-09-24T00:16:41;20.70;51.50
13440;DHT22;6792;57.698;11.946;2022-09-24T00:19:11;20.70;51.60
13440;DHT22;6792;57.698;11.946;2022-09-24T00:21:40;20.70;51.50
13440;DHT22;6792;57.698;11.946;2022-09-24T00:24:12;20.70;51.60
13440;DHT22;6792;57.698;11.946;2022-09-24T00:26:43;20.70;52.00
13440;DHT22;6792;57.698;11.946;2022-09-24T00:29:20;20.70;50.90
13440;DHT22;6792;57.698;11.946;2022-09-24T00:31:51;20.70;51.10
13440;DHT22;6792;57.698;11.946;2022-09-24T00:34:20;20.70;51.60
13440;DHT22;6792;57.698;11.946;2022-09-24T00:36:49;20.70;51.60
13440;DHT22;6792;57.698;11.946;2022-09-24T00:39:20;20.70;51.70
13440;DHT22;6792;57.698;11.946;2022-09-24T00:41:49;20.70;51.60
13440;DHT22;6792;57.698;11.946;2022-09-24T00:44:44;20.70;51.60
13440;DHT22;6792;57.698;11.946;2022-09-24T00:47:17;20.70;51.60
13440;DHT22;6792;57.698;11.946;2022-09-24T00:49:48;20.60;51.70
13440;DHT22;6792;57.698;11.946;2022-09-24T00:52:18;20.60;51.70
13440;DHT22;6792;57.698;11.946;2022-09-24T00:54:48;20.70;51.70
13440;DHT22;6792;57.698;11.946;2022-09-24T00:57:17;20.70;51.70
13440;DHT22;6792;57.698;11.946;2022-09-24T00:59:46;20.70;51.70
13440;DHT22;6792;57.698;11.946;2022-09-24T01:02:15;20.70;51.70
13440;DHT22;6792;57.698;11.946;2022-09-24T01:04:44;20.70;52.30
13440;DHT22;6792;57.698;11.946;2022-09-24T01:07:13;20.70;51.60
13440;DHT22;6792;57.698;11.946;2022-09-24T01:09:42;20.70;51.60
13440;DHT22;6792;57.698;11.946;2022-09-24T01:12:16;20.70;51.70
13440;DHT22;6792;57.698;11.946;2022-09-24T01:14:51;20.70;51.70
13440;DHT22;6792;57.698;11.946;2022-09-24T01:17:25;20.70;51.70
13440;DHT22;6792;57.698;11.946;2022-09-24T01:26:13;20.70;51.70
13440;DHT22;6792;57.698;11.946;2022-09-24T01:28:51;20.70;51.80
13440;DHT22;6792;57.698;11.946;2022-09-24T01:31:24;20.60;51.70
13440;DHT22;6792;57.698;11.946;2022-09-24T01:33:56;20.60;51.80
13440;DHT22;6792;57.698;11.946;2022-09-24T01:36:27;20.60;51.80
13440;DHT22;6792;57.698;11.946;2022-09-24T01:38:59;20.60;51.80
13440;DHT22;6792;57.698;11.946;2022-09-24T01:41:29;20.60;51.80
13440;DHT22;6792;57.698;11.946;2022-09-24T01:44:01;20.70;51.90
13440;DHT22;6792;57.698;11.946;2022-09-24T01:46:32;20.70;51.90
13440;DHT22;6792;57.698;11.946;2022-09-24T01:49:01;20.70;51.90
13440;DHT22;6792;57.698;11.946;2022-09-24T01:51:33;20.70;51.90
13440;DHT22;6792;57.698;11.946;2022-09-24T01:54:04;20.70;51.90
13440;DHT22;6792;57.698;11.946;2022-09-24T01:56:37;20.70;51.90
13440;DHT22;6792;57.698;11.946;2022-09-24T01:59:11;20.70;51.90
13440;DHT22;6792;57.698;11.946;2022-09-24T02:01:44;20.70;51.90
13440;DHT22;6792;57.698;11.946;2022-09-24T02:04:16;20.70;51.90
13440;DHT22;6792;57.698;11.946;2022-09-24T02:06:50;20.80;51.90
13440;DHT22;6792;57.698;11.946;2022-09-24T02:09:33;20.70;51.80
13440;DHT22;6792;57.698;11.946;2022-09-24T02:12:05;20.70;51.30
13440;DHT22;6792;57.698;11.946;2022-09-24T02:14:38;20.70;51.40
13440;DHT22;6792;57.698;11.946;2022-09-24T02:17:07;20.70;52.00
13440;DHT22;6792;57.698;11.946;2022-09-24T02:19:40;20.70;52.00
13440;DHT22;6792;57.698;11.946;2022-09-24T02:22:11;20.70;52.00
13440;DHT22;6792;57.698;11.946;2022-09-24T02:24:43;20.70;52.00
13440;DHT22;6792;57.698;11.946;2022-09-24T02:27:13;20.70;52.00
13440;DHT22;6792;57.698;11.946;2022-09-24T02:29:42;20.70;52.10
13440;DHT22;6792;57.698;11.946;2022-09-24T02:32:13;20.60;52.00
13440;DHT22;6792;57.698;11.946;2022-09-24T02:34:45;20.70;52.10
13440;DHT22;6792;57.698;11.946;2022-09-24T02:37:17;20.60;51.50
13440;DHT22;6792;57.698;11.946;2022-09-24T02:39:47;20.60;52.10
13440;DHT22;6792;57.698;11.946;2022-09-24T02:42:17;20.60;52.10
13440;DHT22;6792;57.698;11.946;2022-09-24T02:44:47;20.60;52.20
13440;DHT22;6792;57.698;11.946;2022-09-24T02:47:16;20.60;52.10
13440;DHT22;6792;57.698;11.946;2022-09-24T02:49:45;20.70;52.20
13440;DHT22;6792;57.698;11.946;2022-09-24T02:52:14;20.60;52.10
13440;DHT22;6792;57.698;11.946;2022-09-24T02:54:43;20.60;52.20
13440;DHT22;6792;57.698;11.946;2022-09-24T02:57:13;20.60;52.20
13440;DHT22;6792;57.698;11.946;2022-09-24T02:59:42;20.60;52.20
13440;DHT22;6792;57.698;11.946;2022-09-24T03:02:11;20.60;52.30
13440;DHT22;6792;57.698;11.946;2022-09-24T03:04:41;20.60;52.30
13440;DHT22;6792;57.698;11.946;2022-09-24T03:07:10;20.60;52.30
13440;DHT22;6792;57.698;11.946;2022-09-24T03:09:41;20.60;52.40
13440;DHT22;6792;57.698;11.946;2022-09-24T03:12:10;20.50;52.30
13440;DHT22;6792;57.698;11.946;2022-09-24T03:14:39;20.50;52.30
13440;DHT22;6792;57.698;11.946;2022-09-24T03:17:08;20.50;52.30
13440;DHT22;6792;57.698;11.946;2022-09-24T03:19:37;20.50;52.40
13440;DHT22;6792;57.698;11.946;2022-09-24T03:22:06;20.50;52.40
13440;DHT22;6792;57.698;11.946;2022-09-24T03:24:35;20.50;52.40
13440;DHT22;6792;57.698;11.946;2022-09-24T03:27:04;20.50;52.40
13440;DHT22;6792;57.698;11.946;2022-09-24T03:29:33;20.50;52.40
13440;DHT22;6792;57.698;11.946;2022-09-24T03:32:21;20.50;52.40
13440;DHT22;6792;57.698;11.946;2022-09-24T03:34:50;20.40;52.40
13440;DHT22;6792;57.698;11.946;2022-09-24T03:37:22;20.40;52.40
13440;DHT22;6792;57.698;11.946;2022-09-24T03:39:51;20.40;52.40
13440;DHT22;6792;57.698;11.946;2022-09-24T03:42:20;20.40;52.50
13440;DHT22;6792;57.698;11.946;2022-09-24T03:44:49;20.40;52.60
13440;DHT22;6792;57.698;11.946;2022-09-24T03:47:19;20.40;52.60
13440;DHT22;6792;57.698;11.946;2022-09-24T03:49:50;20.40;52.60
13440;DHT22;6792;57.698;11.946;2022-09-24T03:52:20;20.30;52.50
13440;DHT22;6792;57.698;11.946;2022-09-24T03:54:50;20.30;52.50
13440;DHT22;6792;57.698;11.946;2022-09-24T03:57:19;20.30;52.60
13440;DHT22;6792;57.698;11.946;2022-09-24T03:59:48;20.30;52.50
13440;DHT22;6792;57.698;11.946;2022-09-24T04:02:18;20.30;52.40
13440;DHT22;6792;57.698;11.946;2022-09-24T04:04:47;20.30;52.50
13440;DHT22;6792;57.698;11.946;2022-09-24T04:07:17;20.30;52.40
13440;DHT22;6792;57.698;11.946;2022-09-24T04:09:46;20.30;52.40
13440;DHT22;6792;57.698;11.946;2022-09-24T04:12:17;20.30;52.40
13440;DHT22;6792;57.698;11.946;2022-09-24T04:14:46;20.30;52.40
13440;DHT22;6792;57.698;11.946;2022-09-24T04:17:15;20.30;52.40
13440;DHT22;6792;57.698;11.946;2022-09-24T04:19:44;20.30;52.50
13440;DHT22;6792;57.698;11.946;2022-09-24T04:22:13;20.20;52.50
13440;DHT22;6792;57.698;11.946;2022-09-24T04:24:43;20.20;52.50
13440;DHT22;6792;57.698;11.946;2022-09-24T04:27:13;20.20;52.50
13440;DHT22;6792;57.698;11.946;2022-09-24T04:29:43;20.20;52.50
13440;DHT22;6792;57.698;11.946;2022-09-24T04:32:12;20.20;52.50
13440;DHT22;6792;57.698;11.946;2022-09-24T04:34:40;20.20;52.40
13440;DHT22;6792;57.698;11.946;2022-09-24T04:37:10;20.20;52.40
13440;DHT22;6792;57.698;11.946;2022-09-24T04:39:39;20.20;52.40
13440;DHT22;6792;57.698;11.946;2022-09-24T04:42:09;20.20;52.40
13440;DHT22;6792;57.698;11.946;2022-09-24T04:44:38;20.20;52.40
13440;DHT22;6792;57.698;11.946;2022-09-24T04:47:08;20.20;52.40
13440;DHT22;6792;57.698;11.946;2022-09-24T04:49:38;20.20;52.30
13440;DHT22;6792;57.698;11.946;2022-09-24T04:52:07;20.20;52.30
13440;DHT22;6792;57.698;11.946;2022-09-24T04:54:36;20.20;52.30
13440;DHT22;6792;57.698;11.946;2022-09-24T04:57:05;20.20;52.20
13440;DHT22;6792;57.698;11.946;2022-09-24T04:59:35;20.20;52.20
13440;DHT22;6792;57.698;11.946;2022-09-24T05:02:04;20.20;52.20
13440;DHT22;6792;57.698;11.946;2022-09-24T05:04:33;20.20;52.20
13440;DHT22;6792;57.698;11.946;2022-09-24T05:07:02;20.20;52.20
13440;DHT22;6792;57.698;11.946;2022-09-24T05:09:31;20.10;52.30
13440;DHT22;6792;57.698;11.946;2022-09-24T05:12:02;20.10;52.30
13440;DHT22;6792;57.698;11.946;2022-09-24T05:14:31;20.10;51.70
13440;DHT22;6792;57.698;11.946;2022-09-24T05:17:00;20.10;52.30
13440;DHT22;6792;57.698;11.946;2022-09-24T05:19:29;20.10;51.80
13440;DHT22;6792;57.698;11.946;2022-09-24T05:22:00;20.10;51.80
13440;DHT22;6792;57.698;11.946;2022-09-24T05:24:30;20.10;52.30
13440;DHT22;6792;57.698;11.946;2022-09-24T05:26:59;20.10;52.30
13440;DHT22;6792;57.698;11.946;2022-09-24T05:29:41;20.10;52.30
13440;DHT22;6792;57.698;11.946;2022-09-24T05:32:13;20.10;52.30
13440;DHT22;6792;57.698;11.946;2022-09-24T05:34:43;20.00;52.30
13440;DHT22;6792;57.698;11.946;2022-09-24T05:37:13;20.10;52.30
13440;DHT22;6792;57.698;11.946;2022-09-24T05:39:43;20.10;51.70
13440;DHT22;6792;57.698;11.946;2022-09-24T05:42:12;20.10;52.20
13440;DHT22;6792;57.698;11.946;2022-09-24T05:44:42;20.10;52.20
13440;DHT22;6792;57.698;11.946;2022-09-24T05:47:11;20.10;52.20
13440;DHT22;6792;57.698;11.946;2022-09-24T05:49:40;20.00;51.50
13440;DHT22;6792;57.698;11.946;2022-09-24T05:52:09;20.00;52.10
13440;DHT22;6792;57.698;11.946;2022-09-24T05:54:39;20.00;52.00
13440;DHT22;6792;57.698;11.946;2022-09-24T05:57:08;20.00;52.00
13440;DHT22;6792;57.698;11.946;2022-09-24T05:59:39;18.50;50.80
13440;DHT22;6792;57.698;11.946;2022-09-24T06:02:10;20.00;52.00
13440;DHT22;6792;57.698;11.946;2022-09-24T06:04:41;20.00;52.00
13440;DHT22;6792;57.698;11.946;2022-09-24T06:07:10;20.00;52.00
13440;DHT22;6792;57.698;11.946;2022-09-24T06:09:39;20.00;52.00
13440;DHT22;6792;57.698;11.946;2022-09-24T06:12:08;20.00;52.00
13440;DHT22;6792;57.698;11.946;2022-09-24T06:14:38;20.00;52.00
13440;DHT22;6792;57.698;11.946;2022-09-24T06:17:09;20.00;51.40
13440;DHT22;6792;57.698;11.946;2022-09-24T06:19:38;20.00;51.90
13440;DHT22;6792;57.698;11.946;2022-09-24T06:22:08;20.00;51.90
13440;DHT22;6792;57.698;11.946;2022-09-24T06:24:38;20.00;51.90
13440;DHT22;6792;57.698;11.946;2022-09-24T06:27:08;20.00;51.90
13440;DHT22;6792;57.698;11.946;2022-09-24T06:29:37;20.00;51.90
13440;DHT22;6792;57.698;11.946;2022-09-24T06:32:06;20.00;51.90
13440;DHT22;6792;57.698;11.946;2022-09-24T06:34:35;20.00;51.90
13440;DHT22;6792;57.698;11.946;2022-09-24T06:37:05;20.00;51.90
13440;DHT22;6792;57.698;11.946;2022-09-24T06:39:36;20.00;51.90
13440;DHT22;6792;57.698;11.946;2022-09-24T06:42:05;20.00;51.90
13440;DHT22;6792;57.698;11.946;2022-09-24T06:44:34;20.00;52.00
13440;DHT22;6792;57.698;11.946;2022-09-24T06:47:04;20.00;52.00
13440;DHT22;6792;57.698;11.946;2022-09-24T06:49:33;20.00;52.00
13440;DHT22;6792;57.698;11.946;2022-09-24T06:52:02;20.00;52.10
13440;DHT22;6792;57.698;11.946;2022-09-24T06:54:33;20.00;52.00
13440;DHT22;6792;57.698;11.946;2022-09-24T06:57:03;20.00;52.00
13440;DHT22;6792;57.698;11.946;2022-09-24T06:59:34;20.00;52.00
13440;DHT22;6792;57.698;11.946;2022-09-24T07:02:03;19.90;52.00
13440;DHT22;6792;57.698;11.946;2022-09-24T07:04:32;19.90;52.00
13440;DHT22;6792;57.698;11.946;2022-09-24T07:07:01;19.90;52.10
13440;DHT22;6792;57.698;11.946;2022-09-24T07:12:35;19.90;51.60
13440;DHT22;6792;57.698;11.946;2022-09-24T07:15:06;19.90;52.20
13440;DHT22;6792;57.698;11.946;2022-09-24T07:17:35;19.90;52.20
13440;DHT22;6792;57.698;11.946;2022-09-24T07:20:05;19.90;51.70
13440;DHT22;6792;57.698;11.946;2022-09-24T07:22:38;19.90;52.30
13440;DHT22;6792;57.698;11.946;2022-09-24T07:25:10;19.90;52.40
13440;DHT22;6792;57.698;11.946;2022-09-24T07:27:39;19.90;52.40
13440;DHT22;6792;57.698;11.946;2022-09-24T07:30:10;19.90;52.40
13440;DHT22;6792;57.698;11.946;2022-09-24T07:32:40;19.90;52.40
13440;DHT22;6792;57.698;11.946;2022-09-24T07:35:09;19.90;52.40
13440;DHT22;6792;57.698;11.946;2022-09-24T07:37:39;19.90;52.50
13440;DHT22;6792;57.698;11.946;2022-09-24T07:40:11;20.00;52.60
13440;DHT22;6792;57.698;11.946;2022-09-24T07:42:48;20.00;52.60
13440;DHT22;6792;57.698;11.946;2022-09-24T07:45:22;20.10;52.60
13440;DHT22;6792;57.698;11.946;2022-09-24T07:48:06;20.10;52.50
13440;DHT22;6792;57.698;11.946;2022-09-24T07:50:48;20.10;52.50
13440;DHT22;6792;57.698;11.946;2022-09-24T07:53:18;20.10;52.00
13440;DHT22;6792;57.698;11.946;2022-09-24T07:55:50;20.10;52.50
13440;DHT22;6792;57.698;11.946;2022-09-24T07:58:21;20.20;52.00
13440;DHT22;6792;57.698;11.946;2022-09-24T08:00:50;20.20;52.50
13440;DHT22;6792;57.698;11.946;2022-09-24T08:03:21;20.20;52.50
13440;DHT22;6792;57.698;11.946;2022-09-24T08:05:50;20.30;53.10
13440;DHT22;6792;57.698;11.946;2022-09-24T08:08:21;20.30;52.40
13440;DHT22;6792;57.698;11.946;2022-09-24T08:10:53;20.30;52.40
13440;DHT22;6792;57.698;11.946;2022-09-24T08:13:22;20.30;52.40
13440;DHT22;6792;57.698;11.946;2022-09-24T08:15:56;20.40;52.50
13440;DHT22;6792;57.698;11.946;2022-09-24T08:18:26;20.40;52.50
13440;DHT22;6792;57.698;11.946;2022-09-24T08:20:56;20.40;51.80
13440;DHT22;6792;57.698;11.946;2022-09-24T08:23:26;20.40;52.40
13440;DHT22;6792;57.698;11.946;2022-09-24T08:25:55;20.40;52.40
13440;DHT22;6792;57.698;11.946;2022-09-24T08:28:24;20.40;52.40
13440;DHT22;6792;57.698;11.946;2022-09-24T08:30:59;20.40;51.90
13440;DHT22;6792;57.698;11.946;2022-09-24T08:33:27;20.30;51.90
13440;DHT22;6792;57.698;11.946;2022-09-24T08:35:58;20.40;52.50
13440;DHT22;6792;57.698;11.946;2022-09-24T08:38:28;20.40;52.40
13440;DHT22;6792;57.698;11.946;2022-09-24T08:41:01;20.40;52.40
13440;DHT22;6792;57.698;11.946;2022-09-24T08:43:39;20.40;51.80
13440;DHT22;6792;57.698;11.946;2022-09-24T08:46:12;20.40;52.40
13440;DHT22;6792;57.698;11.946;2022-09-24T08:49:01;20.40;51.90
13440;DHT22;6792;57.698;11.946;2022-09-24T08:51:34;20.30;52.50
13440;DHT22;6792;57.698;11.946;2022-09-24T08:54:05;20.30;52.50
13440;DHT22;6792;57.698;11.946;2022-09-24T08:56:37;20.40;52.50
13440;DHT22;6792;57.698;11.946;2022-09-24T08:59:15;20.40;52.50
13440;DHT22;6792;57.698;11.946;2022-09-24T09:01:48;20.40;52.50
13440;DHT22;6792;57.698;11.946;2022-09-24T09:04:23;20.40;52.00
13440;DHT22;6792;57.698;11.946;2022-09-24T09:07:02;20.40;52.50
13440;DHT22;6792;57.698;11.946;2022-09-24T09:09:40;20.40;52.50
13440;DHT22;6792;57.698;11.946;2022-09-24T09:12:17;20.40;52.50
13440;DHT22;6792;57.698;11.946;2022-09-24T09:14:51;20.50;52.60
13440;DHT22;6792;57.698;11.946;2022-09-24T09:17:30;20.50;52.10
13440;DHT22;6792;57.698;11.946;2022-09-24T09:20:01;20.50;52.60
13440;DHT22;6792;57.698;11.946;2022-09-24T09:22:35;20.50;53.00
13440;DHT22;6792;57.698;11.946;2022-09-24T09:25:11;20.60;52.10
13440;DHT22;6792;57.698;11.946;2022-09-24T09:27:41;20.60;52.60
13440;DHT22;6792;57.698;11.946;2022-09-24T09:30:15;20.60;52.60
13440;DHT22;6792;57.698;11.946;2022-09-24T09:32:56;20.70;52.50
13440;DHT22;6792;57.698;11.946;2022-09-24T09:35:30;20.70;52.50
13440;DHT22;6792;57.698;11.946;2022-09-24T09:38:02;20.70;52.50
13440;DHT22;6792;57.698;11.946;2022-09-24T09:40:34;20.70;52.60
13440;DHT22;6792;57.698;11.946;2022-09-24T09:43:07;20.80;52.60
13440;DHT22;6792;57.698;11.946;2022-09-24T09:45:40;20.80;52.60
13440;DHT22;6792;57.698;11.946;2022-09-24T09:48:10;20.80;52.60
13440;DHT22;6792;57.698;11.946;2022-09-24T09:50:43;20.80;52.50
13440;DHT22;6792;57.698;11.946;2022-09-24T09:53:19;20.90;52.60
13440;DHT22;6792;57.698;11.946;2022-09-24T09:55:53;20.90;52.60
13440;DHT22;6792;57.698;11.946;2022-09-24T09:58:24;20.90;52.60
13440;DHT22;6792;57.698;11.946;2022-09-24T10:01:02;20.90;52.50
13440;DHT22;6792;57.698;11.946;2022-09-24T10:03:32;20.90;52.50
13440;DHT22;6792;57.698;11.946;2022-09-24T10:06:04;21.00;52.50
13440;DHT22;6792;57.698;11.946;2022-09-24T10:08:33;21.00;52.40
13440;DHT22;6792;57.698;11.946;2022-09-24T10:11:03;21.00;52.40
13440;DHT22;6792;57.698;11.946;2022-09-24T10:13:33;21.10;52.50
13440;DHT22;6792;57.698;11.946;2022-09-24T10:16:04;21.10;52.50
13440;DHT22;6792;57.698;11.946;2022-09-24T10:18:37;21.10;52.40
13440;DHT22;6792;57.698;11.946;2022-09-24T10:21:08;21.10;52.40
13440;DHT22;6792;57.698;11.946;2022-09-24T10:23:41;21.20;51.90
13440;DHT22;6792;57.698;11.946;2022-09-24T10:26:11;21.20;51.90
13440;DHT22;6792;57.698;11.946;2022-09-24T10:28:45;21.20;51.90
13440;DHT22;6792;57.698;11.946;2022-09-24T10:34:26;21.30;52.40
13440;DHT22;6792;57.698;11.946;2022-09-24T10:37:00;21.30;52.40
13440;DHT22;6792;57.698;11.946;2022-09-24T10:39:30;21.30;51.80
13440;DHT22;6792;57.698;11.946;2022-09-24T10:41:59;21.40;52.40
13440;DHT22;6792;57.698;11.946;2022-09-24T10:44:33;21.50;52.40
13440;DHT22;6792;57.698;11.946;2022-09-24T10:47:17;21.50;52.20
13440;DHT22;6792;57.698;11.946;2022-09-24T10:50:05;21.50;52.20
13440;DHT22;6792;57.698;11.946;2022-09-24T10:52:43;21.50;52.20
13440;DHT22;6792;57.698;11.946;2022-09-24T10:55:24;21.50;51.70
13440;DHT22;6792;57.698;11.946;2022-09-24T10:57:57;21.50;52.30
13440;DHT22;6792;57.698;11.946;2022-09-24T11:00:33;21.50;51.80
13440;DHT22;6792;57.698;11.946;2022-09-24T11:03:30;21.50;52.30
13440;DHT22;6792;57.698;11.946;2022-09-24T11:06:01;21.60;52.30
13440;DHT22;6792;57.698;11.946;2022-09-24T11:08:43;21.60;52.30
13440;DHT22;6792;57.698;11.946;2022-09-24T11:11:19;21.60;52.30
13440;DHT22;6792;57.698;11.946;2022-09-24T11:13:53;21.60;52.20
13440;DHT22;6792;57.698;11.946;2022-09-24T11:16:46;21.60;51.70
13440;DHT22;6792;57.698;11.946;2022-09-24T11:19:24;21.70;51.70
13440;DHT22;6792;57.698;11.946;2022-09-24T11:22:05;21.70;52.40
13440;DHT22;6792;57.698;11.946;2022-09-24T11:24:49;21.70;52.30
13440;DHT22;6792;57.698;11.946;2022-09-24T11:27:31;21.80;52.30
13440;DHT22;6792;57.698;11.946;2022-09-24T11:30:09;21.80;52.20
13440;DHT22;6792;57.698;11.946;2022-09-24T11:32:53;21.80;52.10
13440;DHT22;6792;57.698;11.946;2022-09-24T11:38:15;21.80;52.60
13440;DHT22;6792;57.698;11.946;2022-09-24T11:40:57;21.90;52.00
13440;DHT22;6792;57.698;11.946;2022-09-24T11:43:47;21.90;52.10
13440;DHT22;6792;57.698;11.946;2022-09-24T11:46:27;21.90;51.40
13440;DHT22;6792;57.698;11.946;2022-09-24T11:49:14;21.80;51.50
13440;DHT22;6792;57.698;11.946;2022-09-24T11:51:50;21.90;52.20
13440;DHT22;6792;57.698;11.946;2022-09-24T11:54:23;21.90;52.10
13440;DHT22;6792;57.698;11.946;2022-09-24T11:56:55;21.90;52.00
13440;DHT22;6792;57.698;11.946;2022-09-24T11:59:32;21.90;51.90
13440;DHT22;6792;57.698;11.946;2022-09-24T12:02:04;21.90;51.90
13440;DHT22;6792;57.698;11.946;2022-09-24T12:04:39;22.00;52.00
13440;DHT22;6792;57.698;11.946;2022-09-24T12:07:12;22.00;51.90
13440;DHT22;6792;57.698;11.946;2022-09-24T12:09:44;22.00;51.90
13440;DHT22;6792;57.698;11.946;2022-09-24T12:12:16;22.00;51.90
13440;DHT22;6792;57.698;11.946;2022-09-24T12:14:50;22.00;51.90
13440;DHT22;6792;57.698;11.946;2022-09-24T12:17:21;22.00;51.90
13440;DHT22;6792;57.698;11.946;2022-09-24T12:19:54;22.00;51.90
13440;DHT22;6792;57.698;11.946;2022-09-24T12:22:24;22.00;51.30
13440;DHT22;6792;57.698;11.946;2022-09-24T12:24:56;22.00;51.80
13440;DHT22;6792;57.698;11.946;2022-09-24T12:27:30;22.00;51.70
13440;DHT22;6792;57.698;11.946;2022-09-24T12:30:02;22.00;51.60
13440;DHT22;6792;57.698;11.946;2022-09-24T12:32:51;22.00;51.10
13440;DHT22;6792;57.698;11.946;2022-09-24T12:35:32;22.00;51.80
13440;DHT22;6792;57.698;11.946;2022-09-24T12:38:09;22.00;51.70
13440;DHT22;6792;57.698;11.946;2022-09-24T12:41:06;22.00;51.20
13440;DHT22;6792;57.698;11.946;2022-09-24T12:43:38;22.00;51.80
13440;DHT22;6792;57.698;11.946;2022-09-24T12:46:14;22.00;51.70
13440;DHT22;6792;57.698;11.946;2022-09-24T12:48:44;22.10;51.70
13440;DHT22;6792;57.698;11.946;2022-09-24T12:51:15;22.00;51.70
13440;DHT22;6792;57.698;11.946;2022-09-24T12:53:54;22.10;51.60
13440;DHT22;6792;57.698;11.946;2022-09-24T12:56:26;22.10;51.50
13440;DHT22;6792;57.698;11.946;2022-09-24T12:58:57;22.10;51.50
13440;DHT22;6792;57.698;11.946;2022-09-24T13:01:29;22.10;51.50
13440;DHT22;6792;57.698;11.946;2022-09-24T13:04:04;22.20;51.50
13440;DHT22;6792;57.698;11.946;2022-09-24T13:06:36;22.20;51.40
13440;DHT22;6792;57.698;11.946;2022-09-24T13:09:25;22.20;50.80
13440;DHT22;6792;57.698;11.946;2022-09-24T13:12:05;22.30;51.40
13440;DHT22;6792;57.698;11.946;2022-09-24T13:14:35;22.30;51.30
13440;DHT22;6792;57.698;11.946;2022-09-24T13:17:07;22.30;51.20
13440;DHT22;6792;57.698;11.946;2022-09-24T13:19:40;22.30;51.10
13440;DHT22;6792;57.698;11.946;2022-09-24T13:22:21;22.30;51.10
13440;DHT22;6792;57.698;11.946;2022-09-24T13:24:52;22.30;51.10
13440;DHT22;6792;57.698;11.946;2022-09-24T13:27:32;22.30;51.00
13440;DHT22;6792;57.698;11.946;2022-09-24T13:30:03;22.40;51.00
13440;DHT22;6792;57.698;11.946;2022-09-24T13:32:36;22.30;51.00
13440;DHT22;6792;57.698;11.946;2022-09-24T13:35:10;22.30;51.00
13440;DHT22;6792;57.698;11.946;2022-09-24T13:37:41;22.30;50.90
13440;DHT22;6792;57.698;11.946;2022-09-24T13:40:18;22.40;50.90
13440;DHT22;6792;57.698;11.946;2022-09-24T13:42:51;22.30;50.80
13440;DHT22;6792;57.698;11.946;2022-09-24T13:45:22;22.30;50.80
13440;DHT22;6792;57.698;11.946;2022-09-24T13:47:53;22.30;50.80
13440;DHT22;6792;57.698;11.946;2022-09-24T13:50:26;22.40;50.80
13440;DHT22;6792;57.698;11.946;2022-09-24T13:52:58;22.40;50.80
13440;DHT22;6792;57.698;11.946;2022-09-24T13:55:29;22.40;50.80
13440;DHT22;6792;57.698;11.946;2022-09-24T13:57:59;22.40;50.90
13440;DHT22;6792;57.698;11.946;2022-09-24T14:00:29;22.40;50.90
13440;DHT22;6792;57.698;11.946;2022-09-24T14:03:02;22.30;50.80
13440;DHT22;6792;57.698;11.946;2022-09-24T14:05:34;22.40;50.90
13440;DHT22;6792;57.698;11.946;2022-09-24T14:08:05;22.40;50.80
13440;DHT22;6792;57.698;11.946;2022-09-24T14:10:35;22.40;50.80
13440;DHT22;6792;57.698;11.946;2022-09-24T14:13:15;22.40;50.80
13440;DHT22;6792;57.698;11.946;2022-09-24T14:15:53;22.40;50.80
13440;DHT22;6792;57.698;11.946;2022-09-24T14:18:23;22.40;50.80
13440;DHT22;6792;57.698;11.946;2022-09-24T14:20:56;22.40;51.40
13440;DHT22;6792;57.698;11.946;2022-09-24T14:23:28;22.50;50.30
13440;DHT22;6792;57.698;11.946;2022-09-24T14:25:59;22.60;50.90
13440;DHT22;6792;57.698;11.946;2022-09-24T14:28:28;22.60;50.80
13440;DHT22;6792;57.698;11.946;2022-09-24T14:31:00;22.70;50.80
13440;DHT22;6792;57.698;11.946;2022-09-24T14:33:31;22.70;50.70
13440;DHT22;6792;57.698;11.946;2022-09-24T14:36:02;22.70;50.10
13440;DHT22;6792;57.698;11.946;2022-09-24T14:38:35;22.80;50.10
13440;DHT22;6792;57.698;11.946;2022-09-24T14:41:12;22.80;50.00
13440;DHT22;6792;57.698;11.946;2022-09-24T14:43:41;22.90;50.00
13440;DHT22;6792;57.698;11.946;2022-09-24T14:46:15;23.00;49.90
13440;DHT22;6792;57.698;11.946;2022-09-24T14:48:45;23.00;50.30
13440;DHT22;6792;57.698;11.946;2022-09-24T14:51:29;23.10;50.20
13440;DHT22;6792;57.698;11.946;2022-09-24T14:53:59;23.10;49.50
13440;DHT22;6792;57.698;11.946;2022-09-24T14:56:30;23.10;50.00
13440;DHT22;6792;57.698;11.946;2022-09-24T14:58:59;23.10;49.80
13440;DHT22;6792;57.698;11.946;2022-09-24T15:01:31;23.20;49.80
13440;DHT22;6792;57.698;11.946;2022-09-24T15:04:02;23.20;49.60
13440;DHT22;6792;57.698;11.946;2022-09-24T15:06:34;23.10;49.30
13440;DHT22;6792;57.698;11.946;2022-09-24T15:09:05;23.10;49.20
13440;DHT22;6792;57.698;11.946;2022-09-24T15:11:36;23.10;49.20
13440;DHT22;6792;57.698;11.946;2022-09-24T15:14:18;23.10;49.10
13440;DHT22;6792;57.698;11.946;2022-09-24T15:16:49;23.10;49.00
13440;DHT22;6792;57.698;11.946;2022-09-24T15:19:20;23.10;48.90
13440;DHT22;6792;57.698;11.946;2022-09-24T15:21:51;23.00;48.70
13440;DHT22;6792;57.698;11.946;2022-09-24T15:24:20;22.90;48.70
13440;DHT22;6792;57.698;11.946;2022-09-24T15:26:59;23.00;48.70
13440;DHT22;6792;57.698;11.946;2022-09-24T15:29:28;23.00;48.50
13440;DHT22;6792;57.698;11.946;2022-09-24T15:31:58;22.90;48.50
13440;DHT22;6792;57.698;11.946;2022-09-24T15:34:27;22.90;48.40
13440;DHT22;6792;57.698;11.946;2022-09-24T15:36:57;22.90;48.40
13440;DHT22;6792;57.698;11.946;2022-09-24T15:39:26;22.90;48.30
13440;DHT22;6792;57.698;11.946;2022-09-24T15:41:55;23.00;48.30
13440;DHT22;6792;57.698;11.946;2022-09-24T15:44:25;23.00;48.30
13440;DHT22;6792;57.698;11.946;2022-09-24T15:46:54;23.00;48.10
13440;DHT22;6792;57.698;11.946;2022-09-24T15:49:23;23.00;48.10
13440;DHT22;6792;57.698;11.946;2022-09-24T15:51:54;22.90;48.00
13440;DHT22;6792;57.698;11.946;2022-09-24T15:54:24;22.90;47.40
13440;DHT22;6792;57.698;11.946;2022-09-24T15:56:54;22.90;48.00
13440;DHT22;6792;57.698;11.946;2022-09-24T15:59:27;22.80;47.40
13440;DHT22;6792;57.698;11.946;2022-09-24T16:02:00;22.80;48.00
13440;DHT22;6792;57.698;11.946;2022-09-24T16:04:29;22.80;48.00
13440;DHT22;6792;57.698;11.946;2022-09-24T16:06:58;22.70;48.00
13440;DHT22;6792;57.698;11.946;2022-09-24T16:09:27;22.70;48.00
13440;DHT22;6792;57.698;11.946;2022-09-24T16:11:56;22.70;47.90
13440;DHT22;6792;57.698;11.946;2022-09-24T16:14:25;22.70;47.90
13440;DHT22;6792;57.698;11.946;2022-09-24T16:16:54;22.70;47.90